Time;durP1;ratioP1;P1;durP2;ratioP2;P2;SDS_P1;SDS_P2;PMS_P1;PMS_P2;Temp;Humidity;BMP_temperature;BMP_pressure;BME280_temperature;BME280_humidity;BME280_pressure;Samples;Min_cycle;Max_cycle;Signal;HPM_P1;HPM_P2
2023/02/23 00:02:06;;;;;;;;;;;;;;;-2.09;57.25;100438.12;1807607;79;20203;-89
2023/02/23 00:05:06;;;;;;;;;;;;;;;-2.27;57.44;100442.38;1807765;78;20208;-78
2023/02/23 00:08:10;;;;;;;;;;;;;;;-2.36;57.95;100445.98;1808674;78;20181;-88
2023/02/23 00:11:17;;;;;;;;;;;;;;;-2.29;58.15;100451.00;1793582;79;20129;-88
2023/02/23 00:14:23;;;;;;;;;;;;;;;-2.40;58.13;100459.20;1806974;78;20208;-78
2023/02/23 00:17:30;;;;;;;;;;;;;;;-2.35;57.92;100460.27;1807663;79;20165;-89
2023/02/23 00:20:37;;;;;;;;;;;;;;;-2.36;57.80;100459.38;1809330;79;20181;-79
2023/02/23 00:23:42;;;;;;;;;;;;;;;-2.30;57.91;100465.36;1806822;79;20184;-79
2023/02/23 00:26:50;;;;;;;;;;;;;;;-2.24;57.92;100471.20;1809347;79;20192;-89
2023/02/23 00:29:55;;;;;;;;;;;;;;;-2.35;58.04;100475.86;1806693;78;20177;-79
2023/02/23 00:33:00;;;;;;;;;;;;;;;-2.22;57.45;100477.31;1808691;79;20165;-87
2023/02/23 00:36:10;;;;;;;;;;;;;;;-2.32;57.83;100478.34;1809081;79;20181;-89
2023/02/23 00:39:27;;;;;;;;;;;;;;;-2.47;58.23;100488.63;1806843;79;20161;-79
2023/02/23 00:42:31;;;;;;;;;;;;;;;-2.57;58.51;100484.76;1809318;79;20232;-88
2023/02/23 00:45:35;;;;;;;;;;;;;;;-2.59;58.56;100482.62;1808996;79;20193;-88
2023/02/23 00:48:41;;;;;;;;;;;;;;;-2.47;58.43;100485.95;1806432;79;20196;-89
2023/02/23 00:51:46;;;;;;;;;;;;;;;-2.43;58.31;100486.16;1809952;79;20177;-89
2023/02/23 00:54:52;;;;;;;;;;;;;;;-2.46;58.46;100490.34;1806854;79;20213;-80
2023/02/23 00:57:57;;;;;;;;;;;;;;;-2.39;58.37;100487.70;1807153;79;20189;-79
2023/02/23 01:01:04;;;;;;;;;;;;;;;-2.37;58.32;100492.48;1806272;79;20604;-79
2023/02/23 01:04:09;;;;;;;;;;;;;;;-2.39;58.36;100483.69;1806350;79;20192;-78
2023/02/23 01:07:13;;;;;;;;;;;;;;;-2.39;58.34;100486.84;1807018;79;20165;-79
2023/02/23 01:10:21;;;;;;;;;;;;;;;-2.36;58.24;100488.84;1807686;79;20217;-79
2023/02/23 01:13:27;;;;;;;;;;;;;;;-2.42;58.28;100491.89;1808657;79;20184;-78
2023/02/23 01:16:37;;;;;;;;;;;;;;;-2.42;58.36;100495.91;1808113;79;20655;-79
2023/02/23 01:19:41;;;;;;;;;;;;;;;-2.42;58.43;100497.25;1807312;78;20583;-88
2023/02/23 01:22:46;;;;;;;;;;;;;;;-2.38;58.50;100502.82;1807797;79;20161;-88
2023/02/23 01:25:51;;;;;;;;;;;;;;;-2.38;58.36;100506.84;1806773;79;20209;-78
2023/02/23 01:28:59;;;;;;;;;;;;;;;-2.40;58.25;100507.42;1807770;79;20197;-78
2023/02/23 01:32:04;;;;;;;;;;;;;;;-2.61;58.70;100510.84;1807993;79;20177;-88
2023/02/23 01:35:04;;;;;;;;;;;;;;;-2.55;58.71;100513.64;1806796;78;20188;-78
2023/02/23 01:37:55;;;;;;;;;;;;;;;-2.60;58.54;100512.56;1805959;79;20188;-78
2023/02/23 01:41:01;;;;;;;;;;;;;;;-2.50;58.50;100519.59;1807543;79;20191;-78
2023/02/23 01:44:11;;;;;;;;;;;;;;;-2.47;58.51;100524.78;1805361;79;20181;-89
2023/02/23 01:47:20;;;;;;;;;;;;;;;-2.49;58.77;100528.05;1781469;79;20185;-78
2023/02/23 01:50:26;;;;;;;;;;;;;;;-2.45;58.83;100528.22;1798515;80;20205;-88
2023/02/23 01:53:35;;;;;;;;;;;;;;;-2.46;58.51;100528.33;1799840;80;20209;-88
2023/02/23 01:56:42;;;;;;;;;;;;;;;-2.45;58.35;100529.56;1800891;80;20169;-79
2023/02/23 01:59:54;;;;;;;;;;;;;;;-2.64;58.83;100530.23;1800380;80;20734;-89
2023/02/23 02:03:01;;;;;;;;;;;;;;;-2.65;59.07;100536.06;1799107;80;20185;-82
2023/02/23 02:06:08;;;;;;;;;;;;;;;-2.67;59.22;100531.77;1798818;80;20185;-79
2023/02/23 02:09:16;;;;;;;;;;;;;;;-2.66;59.32;100535.69;1799943;80;20173;-88
2023/02/23 02:12:22;;;;;;;;;;;;;;;-2.72;59.57;100546.75;1799502;80;20197;-79
2023/02/23 02:15:28;;;;;;;;;;;;;;;-2.68;59.72;100552.78;1799435;80;20180;-89
2023/02/23 02:18:37;;;;;;;;;;;;;;;-2.83;60.17;100558.52;1799284;80;20205;-79
2023/02/23 02:22:13;;;;;;;;;;;;;;;-2.90;60.50;100560.69;1800276;80;20248;-78
2023/02/23 02:25:40;;;;;;;;;;;;;;;-2.89;60.73;100569.09;1799248;80;20209;-80
2023/02/23 02:28:53;;;;;;;;;;;;;;;-2.78;60.69;100568.97;1801045;80;20174;-89
2023/02/23 02:32:12;;;;;;;;;;;;;;;-2.75;60.64;100572.83;1798765;80;20184;-79
2023/02/23 02:35:20;;;;;;;;;;;;;;;-2.71;60.62;100575.73;1801101;80;20169;-80
2023/02/23 02:38:34;;;;;;;;;;;;;;;-2.69;60.68;100575.16;1800322;80;20189;-88
2023/02/23 02:41:53;;;;;;;;;;;;;;;-2.71;60.50;100577.93;1801508;80;20157;-78
2023/02/23 02:45:07;;;;;;;;;;;;;;;-2.69;60.59;100583.19;1801864;80;20180;-79
2023/02/23 02:48:14;;;;;;;;;;;;;;;-2.62;60.30;100589.95;1802205;80;20197;-78
2023/02/23 02:51:28;;;;;;;;;;;;;;;-2.73;60.80;100592.34;1772205;81;20195;-78
2023/02/23 02:54:40;;;;;;;;;;;;;;;-2.35;60.04;100596.43;1773706;81;20207;-87
2023/02/23 02:57:45;;;;;;;;;;;;;;;-2.42;59.74;100600.39;1759744;82;20184;-88
2023/02/23 04:19:39;;;;;;;;;;;;;;;-3.19;63.72;100669.78;1780440;81;20187;-79
2023/02/23 04:22:44;;;;;;;;;;;;;;;-3.36;64.04;100678.20;1779132;81;20219;-87
2023/02/23 04:25:49;;;;;;;;;;;;;;;-3.32;64.05;100684.73;1780749;81;20199;-79
2023/02/23 04:28:53;;;;;;;;;;;;;;;-3.40;64.13;100688.66;1780288;81;20279;-87
2023/02/23 04:31:56;;;;;;;;;;;;;;;-3.41;64.12;100688.27;1781044;81;20605;-79
2023/02/23 04:35:00;;;;;;;;;;;;;;;-3.44;64.04;100696.44;1779680;81;20179;-88
2023/02/23 04:38:05;;;;;;;;;;;;;;;-3.45;63.43;100699.20;1779588;80;20206;-81
2023/02/23 04:41:10;;;;;;;;;;;;;;;-3.52;62.72;100701.81;1781754;81;20191;-80
2023/02/23 04:44:16;;;;;;;;;;;;;;;-3.58;61.68;100702.95;1780986;81;20191;-89
2023/02/23 04:47:22;;;;;;;;;;;;;;;-3.55;60.90;100704.63;1780427;81;20207;-80
2023/02/23 04:50:27;;;;;;;;;;;;;;;-3.54;60.24;100711.22;1777662;80;20633;-88
2023/02/23 04:53:31;;;;;;;;;;;;;;;-3.50;59.28;100719.97;1774654;81;20180;-79
2023/02/23 04:56:36;;;;;;;;;;;;;;;-3.54;58.93;100721.06;1775047;81;20186;-78
2023/02/23 04:59:42;;;;;;;;;;;;;;;-3.56;58.39;100729.64;1773968;81;20578;-88
2023/02/23 05:02:47;;;;;;;;;;;;;;;-3.62;57.94;100741.52;1776243;81;20170;-88
2023/02/23 05:05:46;;;;;;;;;;;;;;;-3.60;57.50;100742.29;1774392;81;20210;-87
2023/02/23 05:08:50;;;;;;;;;;;;;;;-3.61;57.23;100741.43;1774018;81;20191;-87
2023/02/23 05:11:55;;;;;;;;;;;;;;;-3.56;56.67;100749.70;1775639;81;20637;-88
2023/02/23 05:14:59;;;;;;;;;;;;;;;-3.41;56.06;100748.92;1773689;81;20214;-86
2023/02/23 05:18:04;;;;;;;;;;;;;;;-3.38;55.90;100749.65;1774834;81;20187;-86
2023/02/23 05:21:13;;;;;;;;;;;;;;;-3.41;55.92;100760.48;1773499;81;20239;-86
2023/02/23 05:24:17;;;;;;;;;;;;;;;-3.39;56.20;100755.95;1773604;81;20191;-79
2023/02/23 05:27:22;;;;;;;;;;;;;;;-3.34;56.36;100761.03;1774440;81;20187;-78
2023/02/23 05:30:26;;;;;;;;;;;;;;;-3.39;56.89;100769.32;1772359;81;20650;-80
2023/02/23 05:33:30;;;;;;;;;;;;;;;-3.37;57.11;100775.45;1772747;81;20179;-89
2023/02/23 05:36:35;;;;;;;;;;;;;;;-3.38;57.26;100780.88;1773043;81;20381;-78
2023/02/23 05:39:39;;;;;;;;;;;;;;;-3.37;57.51;100777.27;1769884;81;20178;-86
2023/02/23 05:42:44;;;;;;;;;;;;;;;-3.42;58.09;100788.66;1766904;81;20220;-84
2023/02/23 05:45:50;;;;;;;;;;;;;;;-3.38;58.57;100797.80;1756743;81;20187;-79
2023/02/23 05:48:49;;;;;;;;;;;;;;;-3.66;59.42;100801.42;1759982;81;20223;-79
2023/02/23 05:51:53;;;;;;;;;;;;;;;-3.66;59.74;100798.75;1763404;81;20191;-79
2023/02/23 05:54:59;;;;;;;;;;;;;;;-3.65;59.54;100804.48;1753548;81;20211;-88
2023/02/23 05:58:03;;;;;;;;;;;;;;;-3.58;58.91;100798.36;1769967;81;20198;-79
2023/02/23 06:01:07;;;;;;;;;;;;;;;-3.54;58.45;100805.30;1764975;81;20230;-86
2023/02/23 06:04:05;;;;;;;;;;;;;;;-3.36;57.13;100803.92;1751093;80;20179;-83
2023/02/23 06:06:57;;;;;;;;;;;;;;;-3.37;56.70;100806.69;1759699;81;20175;-79
2023/02/23 06:10:04;;;;;;;;;;;;;;;-3.39;56.45;100807.22;1755575;81;20211;-79
2023/02/23 06:13:09;;;;;;;;;;;;;;;-3.50;56.34;100818.45;1772530;81;20217;-87
2023/02/23 06:16:14;;;;;;;;;;;;;;;-3.56;55.86;100820.09;1768083;81;20214;-87
2023/02/23 06:19:18;;;;;;;;;;;;;;;-3.49;55.82;100818.84;1757041;81;20213;-80
2023/02/23 06:22:23;;;;;;;;;;;;;;;-3.38;55.65;100817.86;1766083;80;20643;-79
2023/02/23 06:25:26;;;;;;;;;;;;;;;-3.36;55.52;100823.98;1757918;80;20280;-80
2023/02/23 06:28:32;;;;;;;;;;;;;;;-3.35;55.11;100828.39;1754686;81;20524;-80
2023/02/23 06:31:36;;;;;;;;;;;;;;;-3.27;54.93;100835.19;1752098;81;20196;-79
2023/02/23 06:34:40;;;;;;;;;;;;;;;-3.23;54.98;100834.96;1758636;81;20359;-86
2023/02/23 06:37:47;;;;;;;;;;;;;;;-3.20;54.21;100848.64;1758481;80;20246;-79
2023/02/23 06:40:52;;;;;;;;;;;;;;;-3.05;53.80;100843.89;1727656;82;20628;-86
2023/02/23 06:43:56;;;;;;;;;;;;;;;-3.00;53.76;100855.23;1735556;81;20622;-87
2023/02/23 06:47:00;;;;;;;;;;;;;;;-3.01;52.94;100853.50;1726352;82;20201;-80
2023/02/23 06:49:58;;;;;;;;;;;;;;;-3.00;52.23;100859.72;1729540;82;20211;-87
2023/02/23 06:53:03;;;;;;;;;;;;;;;-2.92;51.44;100854.34;1728125;82;20214;-79
2023/02/23 06:56:10;;;;;;;;;;;;;;;-2.90;51.64;100858.31;1759389;81;20226;-86
2023/02/23 06:59:14;;;;;;;;;;;;;;;-2.83;51.76;100859.23;1741263;81;20217;-81
2023/02/23 07:02:19;;;;;;;;;;;;;;;-2.75;51.28;100859.34;1742578;80;20518;-87
2023/02/23 07:05:23;;;;;;;;;;;;;;;-2.80;50.95;100860.05;1770121;81;20199;-86
2023/02/23 07:08:28;;;;;;;;;;;;;;;-2.74;51.04;100861.92;1725125;81;20599;-88
2023/02/23 07:11:32;;;;;;;;;;;;;;;-2.77;50.21;100865.26;1749961;81;20205;-86
2023/02/23 07:14:40;;;;;;;;;;;;;;;-2.72;50.66;100865.41;1755057;81;20219;-80
2023/02/23 07:17:43;;;;;;;;;;;;;;;-2.66;50.27;100867.77;1748355;81;20655;-80
2023/02/23 07:20:54;;;;;;;;;;;;;;;-2.63;50.54;100872.98;1753869;81;20200;-81
2023/02/23 07:23:55;;;;;;;;;;;;;;;-2.52;50.83;100876.43;1744467;81;20221;-80
2023/02/23 07:26:59;;;;;;;;;;;;;;;-2.41;51.27;100871.37;1745096;81;20208;-80
2023/02/23 07:30:04;;;;;;;;;;;;;;;-2.37;50.26;100883.66;1753927;81;20183;-80
2023/02/23 07:33:09;;;;;;;;;;;;;;;-2.44;50.61;100880.92;1750660;81;20575;-80
2023/02/23 07:36:15;;;;;;;;;;;;;;;-2.39;50.35;100885.57;1753657;81;20195;-88
2023/02/23 07:39:19;;;;;;;;;;;;;;;-2.38;49.45;100888.64;1759196;81;20195;-80
2023/02/23 07:42:22;;;;;;;;;;;;;;;-2.36;49.29;100897.92;1755861;81;20241;-88
2023/02/23 07:45:28;;;;;;;;;;;;;;;-2.37;49.45;100900.22;1749198;81;20332;-88
2023/02/23 07:48:33;;;;;;;;;;;;;;;-2.37;49.53;100902.42;1749863;81;20595;-78
2023/02/23 07:51:37;;;;;;;;;;;;;;;-2.33;49.73;100905.81;1746809;81;20689;-79
2023/02/23 07:54:43;;;;;;;;;;;;;;;-2.28;49.43;100899.73;1764295;81;20191;-90
2023/02/23 07:57:48;;;;;;;;;;;;;;;-2.18;49.56;100906.82;1762965;80;20219;-79
2023/02/23 08:00:52;;;;;;;;;;;;;;;-2.08;49.53;100904.05;1761448;80;20208;-78
2023/02/23 08:03:57;;;;;;;;;;;;;;;-2.07;49.93;100917.39;1774171;77;20163;-79
2023/02/23 08:07:03;;;;;;;;;;;;;;;-2.06;49.64;100926.30;1762745;80;20161;-79
2023/02/23 08:10:07;;;;;;;;;;;;;;;-2.03;48.78;100913.19;1759420;79;20337;-87
2023/02/23 08:13:12;;;;;;;;;;;;;;;-1.99;49.72;100913.42;1758116;80;20193;-88
2023/02/23 08:16:17;;;;;;;;;;;;;;;-1.94;48.65;100922.94;1764456;80;20685;-81
2023/02/23 08:19:22;;;;;;;;;;;;;;;-1.88;48.76;100917.75;1749921;81;20219;-81
2023/02/23 08:22:27;;;;;;;;;;;;;;;-1.86;48.24;100938.16;1738982;80;20202;-87
2023/02/23 08:25:32;;;;;;;;;;;;;;;-1.82;48.21;100928.14;1737265;82;20182;-88
2023/02/23 08:28:37;;;;;;;;;;;;;;;-1.77;48.96;100924.73;1764443;80;20242;-88
2023/02/23 08:31:41;;;;;;;;;;;;;;;-1.68;49.16;100926.92;1759996;80;20200;-88
2023/02/23 08:34:49;;;;;;;;;;;;;;;-1.63;49.21;100928.87;1764452;80;20243;-79
2023/02/23 08:37:56;;;;;;;;;;;;;;;-1.56;49.55;100926.23;1771848;80;20183;-80
2023/02/23 08:41:00;;;;;;;;;;;;;;;-1.49;48.89;100932.14;1767077;80;20249;-89
2023/02/23 08:44:05;;;;;;;;;;;;;;;-1.51;49.01;100942.08;1763628;80;20219;-80
2023/02/23 08:47:09;;;;;;;;;;;;;;;-1.44;48.61;100930.07;1768360;80;20711;-79
2023/02/23 08:50:15;;;;;;;;;;;;;;;-1.37;48.26;100932.79;1756600;81;20238;-90
2023/02/23 08:53:24;;;;;;;;;;;;;;;-1.34;47.45;100939.82;1763221;80;20615;-79
2023/02/23 08:56:30;;;;;;;;;;;;;;;-1.31;47.70;100945.89;1732160;81;20219;-80
2023/02/23 08:59:36;;;;;;;;;;;;;;;-1.31;47.18;100941.86;1727528;81;20229;-83
2023/02/23 09:02:42;;;;;;;;;;;;;;;-1.33;48.09;100939.72;1722723;82;20195;-79
2023/02/23 09:05:46;;;;;;;;;;;;;;;-1.34;48.82;100933.97;1750533;80;20251;-89
2023/02/23 09:08:52;;;;;;;;;;;;;;;-1.26;48.49;100938.06;1722105;81;20557;-79
2023/02/23 09:11:57;;;;;;;;;;;;;;;-1.22;48.24;100944.97;1761745;81;20223;-89
2023/02/23 09:15:01;;;;;;;;;;;;;;;-1.24;47.14;100948.23;1735018;81;20192;-89
2023/02/23 09:18:07;;;;;;;;;;;;;;;-1.19;47.59;100944.80;1747810;82;20675;-89
2023/02/23 09:21:17;;;;;;;;;;;;;;;-1.09;47.34;100960.78;1728939;81;21027;-90
2023/02/23 09:24:20;;;;;;;;;;;;;;;-1.06;47.92;100947.20;1747985;81;20237;-89
2023/02/23 09:27:26;;;;;;;;;;;;;;;-1.02;48.14;100955.47;1762682;81;20199;-89
2023/02/23 09:30:31;;;;;;;;;;;;;;;-0.90;47.12;100961.47;1735509;81;20214;-79
2023/02/23 09:33:36;;;;;;;;;;;;;;;-0.78;47.18;100959.44;1713925;81;20181;-90
2023/02/23 09:36:41;;;;;;;;;;;;;;;-0.90;48.26;100952.06;1727089;82;20197;-89
2023/02/23 09:39:47;;;;;;;;;;;;;;;-0.83;47.54;100953.47;1737736;81;20180;-81
2023/02/23 09:43:17;;;;;;;;;;;;;;;-0.77;47.64;100959.82;1734918;82;20165;-90
2023/02/23 09:46:30;;;;;;;;;;;;;;;-0.66;47.59;100958.33;1743293;81;20601;-80
2023/02/23 09:49:38;;;;;;;;;;;;;;;-0.57;47.86;100954.63;1729729;82;20199;-79
2023/02/23 09:52:49;;;;;;;;;;;;;;;-0.52;47.91;100958.39;1726264;83;20197;-90
2023/02/23 09:55:53;;;;;;;;;;;;;;;-0.54;47.42;100955.80;1732850;82;20190;-89
2023/02/23 09:58:59;;;;;;;;;;;;;;;-0.48;47.09;100960.43;1723086;83;20166;-89
2023/02/23 10:02:11;;;;;;;;;;;;;;;-0.41;47.83;100959.98;1732184;82;20208;-89
2023/02/23 10:05:17;;;;;;;;;;;;;;;-0.31;47.67;100964.34;1726150;82;20216;-79
2023/02/23 10:08:28;;;;;;;;;;;;;;;-0.25;47.32;100954.56;1726425;81;20174;-88
2023/02/23 10:11:39;;;;;;;;;;;;;;;-0.23;46.66;100958.52;1743178;79;20158;-86
2023/02/23 10:15:00;;;;;;;;;;;;;;;-0.27;46.57;100963.20;1739965;81;20188;-79
2023/02/23 10:18:14;;;;;;;;;;;;;;;-0.30;47.28;100953.48;1676923;84;20199;-88
2023/02/23 10:21:24;;;;;;;;;;;;;;;-0.22;47.52;100947.66;1676202;84;20238;-89
2023/02/23 10:24:31;;;;;;;;;;;;;;;-0.26;46.75;100955.04;1735545;81;20154;-89
2023/02/23 10:27:39;;;;;;;;;;;;;;;-0.23;46.57;100946.42;1741555;82;20204;-80
2023/02/23 10:30:44;;;;;;;;;;;;;;;-0.20;47.06;100948.42;1733347;82;20216;-79
2023/02/23 10:33:49;;;;;;;;;;;;;;;-0.06;46.15;100946.25;1717545;82;20228;-88
2023/02/23 10:37:00;;;;;;;;;;;;;;;-0.10;46.06;100951.42;1732307;82;20206;-80
2023/02/23 10:40:05;;;;;;;;;;;;;;;-0.13;46.37;100952.49;1737916;82;20570;-79
2023/02/23 10:43:10;;;;;;;;;;;;;;;-0.20;46.82;100943.05;1729608;82;20188;-90
2023/02/23 10:46:14;;;;;;;;;;;;;;;-0.22;46.53;100947.66;1728689;82;20225;-79
2023/02/23 10:49:22;;;;;;;;;;;;;;;-0.19;46.19;100950.62;1720470;82;20233;-89
2023/02/23 10:52:40;;;;;;;;;;;;;;;-0.14;47.12;100950.77;1729603;82;20596;-81
2023/02/23 10:55:44;;;;;;;;;;;;;;;-0.06;47.66;100943.56;1735867;82;20220;-78
2023/02/23 10:58:57;;;;;;;;;;;;;;;-0.06;47.22;100950.28;1731776;81;20623;-89
2023/02/23 11:02:02;;;;;;;;;;;;;;;-0.05;46.97;100948.87;1734737;82;20410;-82
2023/02/23 11:05:09;;;;;;;;;;;;;;;-0.03;45.96;100940.21;1734075;81;20207;-79
2023/02/23 11:08:28;;;;;;;;;;;;;;;-0.03;45.89;100944.73;1724165;81;20646;-90
2023/02/23 11:11:32;;;;;;;;;;;;;;;-0.09;46.11;100951.83;1723024;82;20606;-89
2023/02/23 11:14:38;;;;;;;;;;;;;;;-0.05;45.97;100958.28;1728144;81;20235;-79
2023/02/23 11:17:44;;;;;;;;;;;;;;;0.04;46.53;100953.28;1732416;82;20232;-90
2023/02/23 11:20:50;;;;;;;;;;;;;;;0.07;46.24;100954.45;1719573;82;20213;-90
2023/02/23 11:23:56;;;;;;;;;;;;;;;0.22;45.38;100956.19;1732912;82;20197;-79
2023/02/23 11:27:02;;;;;;;;;;;;;;;0.21;46.14;100955.81;1727194;82;20185;-90
2023/02/23 11:30:10;;;;;;;;;;;;;;;0.28;45.64;100965.70;1723455;82;20243;-88
2023/02/23 11:33:20;;;;;;;;;;;;;;;0.23;45.76;100957.43;1730508;82;20536;-78
2023/02/23 11:36:35;;;;;;;;;;;;;;;0.19;45.99;100961.30;1737726;82;20221;-89
2023/02/23 11:39:40;;;;;;;;;;;;;;;0.19;46.25;100942.95;1717641;82;20562;-89
2023/02/23 11:42:48;;;;;;;;;;;;;;;0.18;45.76;100955.50;1735106;82;20220;-79
2023/02/23 11:45:55;;;;;;;;;;;;;;;0.22;45.74;100952.16;1700616;82;20277;-90
2023/02/23 11:49:04;;;;;;;;;;;;;;;0.25;44.86;100958.22;1731226;82;20222;-91
2023/02/23 11:52:09;;;;;;;;;;;;;;;0.17;45.35;100952.44;1726901;82;20179;-90
2023/02/23 11:55:13;;;;;;;;;;;;;;;0.14;45.30;100948.61;1733270;81;20220;-90
2023/02/23 11:58:29;;;;;;;;;;;;;;;0.19;46.39;100954.57;1729153;82;20215;-79
2023/02/23 12:01:48;;;;;;;;;;;;;;;0.28;45.30;100957.15;1720798;82;20235;-80
2023/02/23 12:04:52;;;;;;;;;;;;;;;0.39;45.58;100959.20;1722910;82;20161;-80
2023/02/23 12:08:10;;;;;;;;;;;;;;;0.41;45.05;100962.64;1729759;82;20641;-91
2023/02/23 12:11:21;;;;;;;;;;;;;;;0.47;45.81;100954.17;1736969;82;20239;-90
2023/02/23 12:14:32;;;;;;;;;;;;;;;0.47;45.06;100960.91;1716877;82;20204;-91
2023/02/23 12:17:44;;;;;;;;;;;;;;;0.47;45.74;100973.02;1722104;82;20216;-90
2023/02/23 12:20:53;;;;;;;;;;;;;;;0.45;44.84;100974.47;1722325;79;20216;-90
2023/02/23 12:23:57;;;;;;;;;;;;;;;0.52;44.59;100976.31;1731076;81;20199;-91
2023/02/23 12:27:05;;;;;;;;;;;;;;;0.45;44.59;100974.47;1738906;82;20161;-91
2023/02/23 12:30:20;;;;;;;;;;;;;;;0.49;45.14;100977.84;1738032;81;20200;-78
2023/02/23 12:33:36;;;;;;;;;;;;;;;0.45;44.72;100975.81;1723937;82;20245;-79
2023/02/23 12:36:52;;;;;;;;;;;;;;;0.54;44.46;100974.86;1719041;82;20501;-90
2023/02/23 12:39:58;;;;;;;;;;;;;;;0.46;44.96;100982.06;1738782;81;20181;-90
2023/02/23 12:43:14;;;;;;;;;;;;;;;0.54;43.90;100982.45;1742131;82;20200;-90
2023/02/23 12:46:24;;;;;;;;;;;;;;;0.59;44.14;100982.17;1738031;82;20177;-90
2023/02/23 12:49:33;;;;;;;;;;;;;;;0.49;44.29;100974.67;1732035;81;20522;-90
2023/02/23 12:52:39;;;;;;;;;;;;;;;0.62;45.07;100988.23;1727159;82;20154;-80
2023/02/23 12:55:50;;;;;;;;;;;;;;;0.65;45.42;100979.95;1732188;82;20687;-78
2023/02/23 12:59:12;;;;;;;;;;;;;;;0.65;45.03;100977.25;1734941;82;20667;-90
2023/02/23 13:02:27;;;;;;;;;;;;;;;0.65;44.06;100983.13;1727200;82;20204;-90
2023/02/23 13:05:38;;;;;;;;;;;;;;;0.67;44.97;100979.38;1738997;82;20188;-89
2023/02/23 13:08:49;;;;;;;;;;;;;;;0.83;44.48;100986.48;1738273;82;20208;-90
2023/02/23 13:12:05;;;;;;;;;;;;;;;0.82;44.51;100980.23;1740702;82;20212;-87
2023/02/23 13:15:17;;;;;;;;;;;;;;;0.81;44.57;100987.08;1736642;83;20181;-90
2023/02/23 13:18:50;;;;;;;;;;;;;;;0.81;44.76;100989.28;1735508;83;20193;-79
2023/02/23 13:22:03;;;;;;;;;;;;;;;0.63;44.91;100987.27;1736035;83;20240;-90
2023/02/23 13:25:10;;;;;;;;;;;;;;;0.59;44.69;100985.72;1734395;83;20472;-80
2023/02/23 13:28:21;;;;;;;;;;;;;;;0.61;44.55;100990.55;1736316;83;20243;-90
2023/02/23 13:31:33;;;;;;;;;;;;;;;0.63;44.19;100999.87;1734104;83;20205;-80
2023/02/23 13:34:44;;;;;;;;;;;;;;;0.63;44.29;100997.17;1732118;83;20204;-90
2023/02/23 13:37:51;;;;;;;;;;;;;;;0.62;44.13;101000.35;1721640;83;20181;-78
2023/02/23 13:41:12;;;;;;;;;;;;;;;0.40;44.34;100998.59;1710867;83;20196;-89
2023/02/23 13:44:16;;;;;;;;;;;;;;;0.44;44.49;101002.84;1723594;83;20154;-78
2023/02/23 13:47:33;;;;;;;;;;;;;;;0.32;43.96;101007.13;1734063;83;20201;-89
2023/02/23 13:50:45;;;;;;;;;;;;;;;0.23;44.27;101004.52;1737584;83;20225;-79
2023/02/23 13:53:54;;;;;;;;;;;;;;;0.23;45.32;101004.52;1717060;83;20592;-78
2023/02/23 13:57:05;;;;;;;;;;;;;;;0.24;44.30;101014.34;1691656;84;20192;-78
2023/02/23 14:00:10;;;;;;;;;;;;;;;0.17;44.35;101016.14;1706615;84;20211;-90
2023/02/23 14:03:28;;;;;;;;;;;;;;;0.19;44.48;101009.73;1713948;83;20225;-88
2023/02/23 14:06:35;;;;;;;;;;;;;;;0.06;44.78;101011.91;1738840;83;20169;-89
2023/02/23 14:09:56;;;;;;;;;;;;;;;0.08;45.00;101011.31;1738150;82;20212;-80
2023/02/23 14:13:23;;;;;;;;;;;;;;;0.10;45.03;101012.11;1738928;82;20254;-89
2023/02/23 14:16:27;;;;;;;;;;;;;;;0.09;45.16;101022.45;1709266;84;20162;-78
2023/02/23 14:19:43;;;;;;;;;;;;;;;0.13;44.83;101023.53;1741080;81;20208;-87
2023/02/23 14:23:25;;;;;;;;;;;;;;;0.14;45.49;101017.66;1741174;82;20199;-90
2023/02/23 14:26:39;;;;;;;;;;;;;;;0.09;46.34;101023.32;1738729;82;20229;-79
2023/02/23 14:29:53;;;;;;;;;;;;;;;0.14;45.82;101019.91;1737935;81;20628;-79
2023/02/23 14:32:57;;;;;;;;;;;;;;;0.18;45.85;101013.35;1741126;82;20161;-89
2023/02/23 14:36:02;;;;;;;;;;;;;;;0.16;46.02;101017.97;1740810;82;20180;-79
2023/02/23 14:39:09;;;;;;;;;;;;;;;0.16;46.18;101015.28;1741884;82;20224;-79
2023/02/23 14:42:14;;;;;;;;;;;;;;;0.18;46.39;101013.35;1741221;82;20239;-88
2023/02/23 14:45:31;;;;;;;;;;;;;;;0.17;46.81;101014.80;1740222;82;20180;-79
2023/02/23 14:48:39;;;;;;;;;;;;;;;0.14;47.02;101015.87;1740340;81;20198;-89
2023/02/23 14:51:47;;;;;;;;;;;;;;;0.18;46.71;101017.88;1740020;82;20173;-78
2023/02/23 14:54:53;;;;;;;;;;;;;;;0.14;46.79;101017.21;1738693;81;20188;-89
2023/02/23 14:57:57;;;;;;;;;;;;;;;0.10;46.67;101017.49;1738352;82;20486;-78
2023/02/23 15:01:02;;;;;;;;;;;;;;;0.09;46.70;101019.77;1739876;82;20652;-78
2023/02/23 15:04:19;;;;;;;;;;;;;;;0.02;46.86;101017.94;1740187;81;20228;-79
2023/02/23 15:07:33;;;;;;;;;;;;;;;-0.01;47.05;101014.08;1738729;82;20217;-89
2023/02/23 15:10:43;;;;;;;;;;;;;;;0.02;47.06;101019.28;1738244;82;20663;-88
2023/02/23 15:13:50;;;;;;;;;;;;;;;0.05;47.45;101028.52;1738656;81;20208;-89
2023/02/23 15:16:55;;;;;;;;;;;;;;;-0.03;47.92;101030.80;1739222;82;20648;-78
2023/02/23 15:20:04;;;;;;;;;;;;;;;-0.09;48.17;101027.13;1738069;81;20588;-78
2023/02/23 15:23:11;;;;;;;;;;;;;;;-0.16;48.29;101033.81;1739652;81;20644;-89
2023/02/23 15:26:35;;;;;;;;;;;;;;;-0.17;48.38;101037.47;1739255;82;20461;-79
2023/02/23 15:29:40;;;;;;;;;;;;;;;-0.21;48.59;101039.46;1738200;81;20215;-79
2023/02/23 15:32:38;;;;;;;;;;;;;;;-0.33;48.74;101041.06;1741764;82;20623;-88
2023/02/23 15:35:46;;;;;;;;;;;;;;;-0.28;48.72;101051.06;1717203;82;20205;-79
2023/02/23 15:38:52;;;;;;;;;;;;;;;-0.28;48.83;101051.55;1739163;82;20216;-79
2023/02/23 15:41:57;;;;;;;;;;;;;;;-0.30;48.89;101056.99;1740366;82;20655;-88
2023/02/23 15:45:07;;;;;;;;;;;;;;;-0.40;49.32;101060.30;1739943;82;20157;-79
2023/02/23 15:48:22;;;;;;;;;;;;;;;-0.42;49.80;101068.47;1741284;82;20213;-80
2023/02/23 15:51:50;;;;;;;;;;;;;;;-0.35;49.91;101064.94;1741121;82;20200;-91
2023/02/23 15:55:00;;;;;;;;;;;;;;;-0.37;50.24;101069.55;1740946;82;20224;-88
2023/02/23 15:57:55;;;;;;;;;;;;;;;-0.37;50.62;101067.73;1740840;82;20196;-78
2023/02/23 16:01:07;;;;;;;;;;;;;;;-0.37;50.82;101077.62;1741478;82;20224;-78
2023/02/23 16:04:09;;;;;;;;;;;;;;;-0.49;51.09;101075.13;1741355;82;20220;-89
2023/02/23 16:07:16;;;;;;;;;;;;;;;-0.50;51.18;101086.84;1740512;82;20231;-87
2023/02/23 16:10:31;;;;;;;;;;;;;;;-0.47;51.13;101087.13;1740639;82;20184;-78
2023/02/23 16:13:34;;;;;;;;;;;;;;;-0.50;51.29;101088.19;1739713;82;20237;-89
2023/02/23 16:16:44;;;;;;;;;;;;;;;-0.56;51.97;101089.89;1746614;82;20599;-87
2023/02/23 16:19:49;;;;;;;;;;;;;;;-0.52;52.33;101095.00;1747995;82;20247;-78
2023/02/23 16:22:54;;;;;;;;;;;;;;;-0.54;52.60;101092.00;1728580;82;20216;-78
2023/02/23 16:26:05;;;;;;;;;;;;;;;-0.56;52.96;101097.47;1749311;82;20197;-78
2023/02/23 16:29:10;;;;;;;;;;;;;;;-0.61;53.43;101101.34;1749201;81;20444;-79
2023/02/23 16:32:26;;;;;;;;;;;;;;;-0.65;53.84;101099.80;1750407;82;20168;-89
2023/02/23 16:35:32;;;;;;;;;;;;;;;-0.80;54.42;101106.87;1748275;82;20623;-78
2023/02/23 16:38:48;;;;;;;;;;;;;;;-0.95;54.74;101112.61;1731891;81;20184;-89
2023/02/23 16:41:53;;;;;;;;;;;;;;;-0.91;55.00;101111.97;1750669;82;20192;-79
2023/02/23 16:44:59;;;;;;;;;;;;;;;-1.02;55.23;101107.19;1718779;82;20203;-80
2023/02/23 16:48:10;;;;;;;;;;;;;;;-1.13;55.63;101114.49;1716394;82;20188;-86
2023/02/23 16:51:22;;;;;;;;;;;;;;;-1.15;55.81;101112.34;1714142;84;20215;-80
2023/02/23 16:54:26;;;;;;;;;;;;;;;-1.13;56.00;101115.84;1703441;84;20629;-78
2023/02/23 16:57:31;;;;;;;;;;;;;;;-1.05;56.05;101123.45;1701955;84;20173;-89
2023/02/23 17:00:37;;;;;;;;;;;;;;;-1.10;56.18;101116.99;1703766;84;20226;-78
2023/02/23 17:03:43;;;;;;;;;;;;;;;-1.10;56.24;101121.50;1722687;81;20223;-79
2023/02/23 17:06:56;;;;;;;;;;;;;;;-1.16;56.26;101117.33;1734274;83;20179;-91
2023/02/23 17:09:59;;;;;;;;;;;;;;;-1.12;56.09;101112.67;1733163;81;20191;-80
2023/02/23 17:13:06;;;;;;;;;;;;;;;-1.14;56.18;101116.76;1734415;83;20625;-89
2023/02/23 17:16:13;;;;;;;;;;;;;;;-1.22;56.26;101119.01;1727325;83;20193;-77
2023/02/23 17:19:18;;;;;;;;;;;;;;;-1.28;56.35;101116.62;1697473;83;20231;-78
2023/02/23 17:22:23;;;;;;;;;;;;;;;-1.26;56.43;101121.94;1693971;85;20591;-88
2023/02/23 17:25:28;;;;;;;;;;;;;;;-1.20;56.50;101113.55;1694185;85;20550;-87